Pacific Magnolia — 3FQW9 — position and weather

sailwx.info

Track history (hours):
 
Tides and Currents Weather Stations Pressure Air Temp Water Temp Dewpoint Dewpoint Depression Visibility Wind Speed Wind Dir Waves Ship Positions

Pacific Magnolia

Last reported at 2017-Nov-17 14:09 UTC. Time now 2017-Nov-19 17:53 UTC.
Position S 35°56' E 175°45'.

Length 138 m; draft 6.1 m.

Type: Cargo ship. MMSI: 357697000.

Date/timePositionNaut miles runAvg speedWind from/ knotsBaromVisibWave heightAir tempDewpointWater temp
2017-Nov-17 14:09S 35°56' E 175°45'317.9
2017-Nov-17 14:00S 35°58' E 175°46'10017.2
2017-Nov-17 08:10S 37°36' E 176°11'212.7
2017-Nov-17 08:00S 37°38' E 176°10'1 1.5
2017-Nov-17 07:26S 37°39' E 176°11'0 0.0
2017-Nov-17 06:56S 37°39' E 176°11'0 0.0
2017-Nov-17 06:26S 37°39' E 176°11'0 0.0
2017-Nov-17 05:59S 37°39' E 176°11'0 0.0
2017-Nov-17 05:29S 37°39' E 176°11'0 0.0
2017-Nov-17 04:59S 37°39' E 176°11'0 0.0
2017-Nov-17 04:29S 37°39' E 176°11'0 0.0
2017-Nov-17 03:59S 37°39' E 176°11'0 0.0
2017-Nov-17 03:29S 37°39' E 176°11'0 0.0
2017-Nov-17 02:59S 37°39' E 176°11'0 0.0
2017-Nov-17 02:29S 37°39' E 176°11'0 0.0
2017-Nov-17 01:59S 37°39' E 176°11'0 0.0
2017-Nov-17 01:29S 37°39' E 176°11'0 0.0
2017-Nov-17 00:59S 37°39' E 176°11'0 0.0
2017-Nov-17 00:29S 37°39' E 176°11'0 0.0
2017-Nov-16 23:59S 37°39' E 176°11'0 0.0
2017-Nov-16 23:29S 37°39' E 176°11'0 0.0
2017-Nov-16 22:59S 37°39' E 176°11'0 0.0
2017-Nov-16 22:29S 37°39' E 176°11'0 0.0
2017-Nov-16 21:59S 37°39' E 176°11'0 0.0
2017-Nov-16 21:29S 37°39' E 176°11'0 0.0
2017-Nov-16 20:59S 37°39' E 176°11'0 0.0
2017-Nov-16 20:29S 37°39' E 176°11'0 0.0
2017-Nov-16 19:59S 37°39' E 176°11'0 0.0
2017-Nov-16 19:29S 37°39' E 176°11'0 0.0
2017-Nov-16 18:59S 37°39' E 176°11'0 0.0
2017-Nov-16 18:29S 37°39' E 176°11'0 0.0
2017-Nov-16 17:59S 37°39' E 176°11'0 0.0
2017-Nov-16 17:29S 37°39' E 176°11'0 0.0
2017-Nov-16 16:56S 37°39' E 176°11'0 0.0
2017-Nov-16 16:29S 37°39' E 176°11'0 0.0
2017-Nov-16 15:59S 37°39' E 176°11'0 0.4
2017-Nov-16 15:30S 37°39' E 176°11'4 9.0
2017-Nov-16 15:00S 37°34' E 176°12'  
2017-Nov-13 00:26S 36°51' E 174°47'0 0.0
2017-Nov-12 23:44S 36°51' E 174°47'0 0.0
2017-Nov-12 23:14S 36°51' E 174°47'0 0.0
2017-Nov-12 10:31S 36°51' E 174°47'0 0.4
2017-Nov-12 10:29S 36°51' E 174°47'3 5.8
2017-Nov-12 10:00S 36°49' E 174°50'611.3
2017-Nov-12 09:30S 36°44' E 174°51'5 9.0
2017-Nov-12 09:00S 36°40' E 174°54'510.3
2017-Nov-12 08:30S 36°36' E 174°57'713.1
2017-Nov-12 08:00S 36°29' E 174°58'612.6
2017-Nov-12 07:30S 36°23' E 174°57'814.0
2017-Nov-12 06:57S 36°15' E 174°57'  
Track history (hours):
 
Tides and Currents Weather Stations Pressure Air Temp Water Temp Dewpoint Dewpoint Depression Visibility Wind Speed Wind Dir Waves Ship Positions

Pacific Magnolia

Last reported at 2017-Nov-17 14:09 UTC. Time now 2017-Nov-19 17:53 UTC.
Position S 35°56' E 175°45'.

Length 138 m; draft 6.1 m.

Type: Cargo ship. MMSI: 357697000.

Date/timePositionNaut miles runAvg speedWind from/ knotsBaromVisibWave heightAir tempDewpointWater temp
2017-Nov-17 14:09S 35°56' E 175°45'317.9
2017-Nov-17 14:00S 35°58' E 175°46'10017.2
2017-Nov-17 08:10S 37°36' E 176°11'212.7
2017-Nov-17 08:00S 37°38' E 176°10'1 1.5
2017-Nov-17 07:26S 37°39' E 176°11'0 0.0
2017-Nov-17 06:56S 37°39' E 176°11'0 0.0
2017-Nov-17 06:26S 37°39' E 176°11'0 0.0
2017-Nov-17 05:59S 37°39' E 176°11'0 0.0
2017-Nov-17 05:29S 37°39' E 176°11'0 0.0
2017-Nov-17 04:59S 37°39' E 176°11'0 0.0
2017-Nov-17 04:29S 37°39' E 176°11'0 0.0
2017-Nov-17 03:59S 37°39' E 176°11'0 0.0
2017-Nov-17 03:29S 37°39' E 176°11'0 0.0
2017-Nov-17 02:59S 37°39' E 176°11'0 0.0
2017-Nov-17 02:29S 37°39' E 176°11'0 0.0
2017-Nov-17 01:59S 37°39' E 176°11'0 0.0
2017-Nov-17 01:29S 37°39' E 176°11'0 0.0
2017-Nov-17 00:59S 37°39' E 176°11'0 0.0
2017-Nov-17 00:29S 37°39' E 176°11'0 0.0
2017-Nov-16 23:59S 37°39' E 176°11'0 0.0
2017-Nov-16 23:29S 37°39' E 176°11'0 0.0
2017-Nov-16 22:59S 37°39' E 176°11'0 0.0
2017-Nov-16 22:29S 37°39' E 176°11'0 0.0
2017-Nov-16 21:59S 37°39' E 176°11'0 0.0
2017-Nov-16 21:29S 37°39' E 176°11'0 0.0
2017-Nov-16 20:59S 37°39' E 176°11'0 0.0
2017-Nov-16 20:29S 37°39' E 176°11'0 0.0
2017-Nov-16 19:59S 37°39' E 176°11'0 0.0
2017-Nov-16 19:29S 37°39' E 176°11'0 0.0
2017-Nov-16 18:59S 37°39' E 176°11'0 0.0
2017-Nov-16 18:29S 37°39' E 176°11'0 0.0
2017-Nov-16 17:59S 37°39' E 176°11'0 0.0
2017-Nov-16 17:29S 37°39' E 176°11'0 0.0
2017-Nov-16 16:56S 37°39' E 176°11'0 0.0
2017-Nov-16 16:29S 37°39' E 176°11'0 0.0
2017-Nov-16 15:59S 37°39' E 176°11'0 0.4
2017-Nov-16 15:30S 37°39' E 176°11'4 9.0
2017-Nov-16 15:00S 37°34' E 176°12'  
2017-Nov-13 00:26S 36°51' E 174°47'0 0.0
2017-Nov-12 23:44S 36°51' E 174°47'0 0.0
2017-Nov-12 23:14S 36°51' E 174°47'0 0.0
2017-Nov-12 10:31S 36°51' E 174°47'0 0.4
2017-Nov-12 10:29S 36°51' E 174°47'3 5.8
2017-Nov-12 10:00S 36°49' E 174°50'611.3
2017-Nov-12 09:30S 36°44' E 174°51'5 9.0
2017-Nov-12 09:00S 36°40' E 174°54'510.3
2017-Nov-12 08:30S 36°36' E 174°57'713.1
2017-Nov-12 08:00S 36°29' E 174°58'612.6
2017-Nov-12 07:30S 36°23' E 174°57'814.0
2017-Nov-12 06:57S 36°15' E 174°57'  

Dump ship's entire track history